Time;durP1;ratioP1;P1;durP2;ratioP2;P2;SDS_P1;SDS_P2;PMS_P1;PMS_P2;Temp;Humidity;BMP_temperature;BMP_pressure;BME280_temperature;BME280_humidity;BME280_pressure;Samples;Min_cycle;Max_cycle;Signal;HPM_P1;HPM_P2
2022/03/08 00:01:06;;;;;;;16.83;14.87;;;2.00;33.30;;;;;;5077234;28;20216;-45
2022/03/08 00:03:33;;;;;;;18.10;16.13;;;2.00;33.30;;;;;;5078001;28;20186;-45
2022/03/08 00:05:59;;;;;;;17.53;15.67;;;2.00;33.40;;;;;;5077702;28;20427;-45
2022/03/08 00:08:24;;;;;;;19.50;15.67;;;2.00;33.40;;;;;;5076915;28;20423;-45
2022/03/08 00:10:51;;;;;;;16.77;14.97;;;1.90;33.30;;;;;;5075226;28;20481;-45
2022/03/08 00:13:16;;;;;;;16.83;15.13;;;1.90;33.40;;;;;;5076438;28;20233;-45
2022/03/08 00:15:42;;;;;;;16.27;14.60;;;1.90;33.40;;;;;;5074927;28;20440;-45
2022/03/08 00:18:08;;;;;;;16.53;14.70;;;1.90;33.40;;;;;;5076258;28;20254;-45
2022/03/08 00:20:33;;;;;;;15.87;13.57;;;1.90;33.50;;;;;;5075194;28;20186;-45
2022/03/08 00:22:59;;;;;;;16.80;15.00;;;1.80;33.50;;;;;;5076834;28;20177;-45
2022/03/08 00:25:26;;;;;;;17.20;15.30;;;1.80;33.50;;;;;;5075872;28;20193;-45
2022/03/08 00:27:53;;;;;;;16.93;15.13;;;1.80;33.50;;;;;;5078005;28;20551;-45
2022/03/08 00:30:25;;;;;;;15.77;14.10;;;1.80;33.50;;;;;;5075502;28;20428;-45
2022/03/08 00:32:51;;;;;;;17.07;15.23;;;1.80;33.50;;;;;;5077639;28;20702;-45
2022/03/08 00:35:18;;;;;;;15.73;13.80;;;1.80;33.50;;;;;;5076553;28;20451;-46
2022/03/08 00:37:44;;;;;;;20.27;15.70;;;1.80;33.50;;;;;;5077699;28;20862;-45
2022/03/08 00:40:11;;;;;;;16.97;15.20;;;1.80;33.60;;;;;;5076720;28;20465;-45
2022/03/08 00:42:36;;;;;;;20.43;16.90;;;1.70;33.60;;;;;;5077610;28;20423;-45
2022/03/08 00:45:03;;;;;;;18.97;16.97;;;1.70;33.70;;;;;;5075348;28;20415;-45
2022/03/08 00:47:29;;;;;;;17.03;15.20;;;1.70;33.70;;;;;;5076345;28;20647;-45
2022/03/08 00:49:54;;;;;;;18.50;15.90;;;1.60;33.70;;;;;;5073847;28;20419;-45
2022/03/08 00:52:20;;;;;;;15.63;14.00;;;1.70;33.90;;;;;;5077068;28;20177;-43
2022/03/08 00:54:46;;;;;;;18.80;16.07;;;1.60;33.80;;;;;;5075540;28;20170;-45
2022/03/08 00:57:12;;;;;;;18.50;15.30;;;1.60;33.90;;;;;;5077496;28;20185;-44
2022/03/08 00:59:37;;;;;;;15.70;14.00;;;1.60;34.00;;;;;;5075722;28;20177;-45
2022/03/08 01:02:03;;;;;;;16.13;14.23;;;1.60;34.00;;;;;;5077728;28;20194;-45
2022/03/08 01:04:29;;;;;;;17.57;15.37;;;1.50;34.00;;;;;;5076320;28;20170;-46
2022/03/08 01:06:55;;;;;;;18.93;14.80;;;1.50;34.00;;;;;;5077251;28;20501;-44
2022/03/08 01:09:21;;;;;;;15.43;13.80;;;1.50;34.00;;;;;;5075474;28;20182;-45
2022/03/08 01:11:47;;;;;;;16.53;14.93;;;1.50;34.10;;;;;;5077578;28;20419;-43
2022/03/08 01:14:12;;;;;;;20.73;16.10;;;1.50;34.20;;;;;;5075789;28;20450;-45
2022/03/08 01:16:38;;;;;;;16.87;14.17;;;1.40;34.10;;;;;;5077070;28;20234;-45
2022/03/08 01:19:05;;;;;;;17.30;13.83;;;1.40;34.60;;;;;;5074633;28;20638;-45
2022/03/08 01:21:32;;;;;;;17.00;14.13;;;1.40;34.30;;;;;;5075896;28;20408;-45
2022/03/08 01:23:58;;;;;;;15.77;13.77;;;1.40;34.30;;;;;;5073926;28;20416;-45
2022/03/08 01:26:23;;;;;;;17.00;15.20;;;1.30;34.30;;;;;;5076079;28;20774;-45
2022/03/08 01:28:49;;;;;;;17.90;16.10;;;1.30;34.30;;;;;;5076414;28;20208;-45
2022/03/08 01:31:14;;;;;;;16.77;14.97;;;1.30;34.30;;;;;;5078584;28;20174;-45
2022/03/08 01:33:40;;;;;;;17.13;15.37;;;1.30;34.30;;;;;;5080170;28;20181;-45
2022/03/08 01:36:06;;;;;;;17.43;15.33;;;1.20;34.30;;;;;;5078636;28;20246;-45
2022/03/08 01:38:32;;;;;;;18.77;14.87;;;1.20;34.40;;;;;;5080976;28;20188;-45
2022/03/08 01:40:58;;;;;;;16.67;14.80;;;1.20;34.40;;;;;;5079453;28;20415;-45
2022/03/08 01:43:23;;;;;;;18.80;14.23;;;1.20;34.40;;;;;;5080635;28;20429;-45
2022/03/08 01:45:49;;;;;;;17.43;15.03;;;1.20;34.40;;;;;;5078977;28;20174;-45
2022/03/08 01:48:15;;;;;;;18.13;15.10;;;1.20;34.50;;;;;;5080472;28;20618;-45
2022/03/08 01:50:40;;;;;;;16.20;14.00;;;1.10;34.40;;;;;;5078820;28;20427;-45
2022/03/08 01:53:06;;;;;;;17.40;14.47;;;1.10;34.50;;;;;;5080614;28;20192;-45
2022/03/08 01:55:33;;;;;;;16.90;14.30;;;1.10;34.50;;;;;;5079114;28;20185;-45
2022/03/08 01:57:59;;;;;;;18.73;14.00;;;1.10;34.50;;;;;;5080710;28;20428;-45
2022/03/08 02:00:27;;;;;;;19.07;13.63;;;1.00;34.50;;;;;;5078860;28;20428;-45
2022/03/08 02:02:53;;;;;;;17.70;15.37;;;1.00;34.60;;;;;;5079777;28;20438;-45
2022/03/08 02:05:19;;;;;;;17.40;13.97;;;1.00;34.60;;;;;;5078073;28;20861;-44
2022/03/08 02:07:45;;;;;;;18.50;14.80;;;1.00;34.70;;;;;;5079541;28;20482;-45
2022/03/08 02:10:11;;;;;;;20.93;15.90;;;1.00;34.70;;;;;;5079016;28;20835;-45
2022/03/08 02:12:37;;;;;;;19.37;14.93;;;0.90;34.70;;;;;;5079671;28;20631;-45
2022/03/08 02:15:13;;;;;;;17.23;14.63;;;0.90;34.70;;;;;;5078524;28;20188;-45
2022/03/08 02:17:38;;;;;;;15.07;13.50;;;0.90;34.70;;;;;;5079965;28;20715;-46
2022/03/08 02:20:05;;;;;;;15.60;13.23;;;0.90;34.70;;;;;;5078132;28;20428;-45
2022/03/08 02:22:31;;;;;;;17.90;14.50;;;0.90;34.80;;;;;;5079718;28;20197;-45
2022/03/08 02:24:56;;;;;;;17.40;14.30;;;0.90;34.70;;;;;;5077941;28;20738;-45
2022/03/08 02:27:22;;;;;;;18.63;15.20;;;0.90;34.80;;;;;;5079839;28;20494;-45
2022/03/08 02:29:48;;;;;;;16.83;14.00;;;0.80;34.70;;;;;;5078387;28;20185;-45
2022/03/08 02:32:15;;;;;;;17.60;14.80;;;0.80;34.80;;;;;;5080064;28;20174;-45
2022/03/08 02:34:41;;;;;;;17.13;14.47;;;0.80;34.80;;;;;;5078104;28;20749;-44
2022/03/08 02:37:09;;;;;;;18.90;15.03;;;0.80;34.80;;;;;;5079622;28;20439;-45
2022/03/08 02:39:35;;;;;;;17.33;13.83;;;0.80;34.80;;;;;;5076426;28;20196;-44
2022/03/08 02:42:02;;;;;;;15.17;13.53;;;0.80;34.90;;;;;;5078450;28;20446;-45
2022/03/08 02:44:27;;;;;;;13.97;12.47;;;0.70;34.80;;;;;;5076474;28;20431;-45
2022/03/08 02:46:53;;;;;;;14.97;13.00;;;0.70;34.90;;;;;;5078030;28;20881;-45
2022/03/08 02:49:19;;;;;;;15.87;13.70;;;0.70;35.00;;;;;;5076831;28;20189;-45
2022/03/08 02:51:46;;;;;;;17.43;13.80;;;0.70;35.00;;;;;;5077978;28;20882;-45
2022/03/08 02:54:12;;;;;;;17.00;13.60;;;0.70;35.00;;;;;;5076941;28;20471;-45
2022/03/08 02:56:38;;;;;;;17.43;13.60;;;0.70;35.00;;;;;;5079559;28;20467;-45
2022/03/08 02:59:04;;;;;;;15.40;12.60;;;0.70;35.00;;;;;;5077520;28;20420;-45
2022/03/08 03:01:29;;;;;;;15.30;12.93;;;0.70;35.00;;;;;;5079157;28;20427;-45
2022/03/08 03:03:55;;;;;;;15.23;13.63;;;0.70;34.90;;;;;;5078066;28;20177;-46
2022/03/08 03:06:20;;;;;;;15.73;13.20;;;0.60;34.80;;;;;;5079490;28;20314;-45
2022/03/08 03:08:46;;;;;;;14.73;13.23;;;0.60;34.80;;;;;;5078456;28;20189;-44
2022/03/08 03:11:12;;;;;;;16.93;12.87;;;0.60;34.80;;;;;;5078015;28;20181;-45
2022/03/08 03:13:37;;;;;;;15.53;13.00;;;0.60;34.80;;;;;;5079171;28;20211;-45
2022/03/08 03:16:03;;;;;;;14.40;12.27;;;0.60;34.80;;;;;;5077488;28;20178;-45
2022/03/08 03:18:29;;;;;;;15.80;13.10;;;0.60;34.80;;;;;;5078941;28;20239;-45
2022/03/08 03:20:54;;;;;;;17.50;12.47;;;0.60;34.80;;;;;;5077233;28;20174;-46
2022/03/08 03:23:20;;;;;;;15.70;13.07;;;0.50;34.80;;;;;;5078711;28;20182;-45
2022/03/08 03:25:45;;;;;;;13.60;12.10;;;0.50;34.80;;;;;;5078543;28;20233;-45
2022/03/08 03:28:11;;;;;;;13.93;11.53;;;0.50;34.80;;;;;;5076897;28;20217;-45
2022/03/08 03:30:36;;;;;;;17.50;11.97;;;0.50;34.90;;;;;;5078335;28;20181;-45
2022/03/08 03:33:03;;;;;;;14.73;12.53;;;0.50;34.90;;;;;;5076983;28;20554;-45
2022/03/08 03:35:30;;;;;;;15.60;13.53;;;0.50;34.90;;;;;;5078462;28;20174;-45
2022/03/08 03:37:56;;;;;;;14.63;13.00;;;0.50;34.90;;;;;;5076540;28;20439;-45
2022/03/08 03:40:22;;;;;;;12.90;11.50;;;0.50;34.90;;;;;;5078644;28;20518;-45
2022/03/08 03:42:47;;;;;;;14.63;13.03;;;0.50;34.80;;;;;;5077007;28;20210;-45
2022/03/08 03:45:13;;;;;;;13.90;12.40;;;0.50;34.80;;;;;;5078523;28;20276;-45
2022/03/08 03:47:40;;;;;;;15.17;12.40;;;0.50;34.70;;;;;;5077751;28;20296;-45
2022/03/08 03:50:07;;;;;;;14.97;12.53;;;0.50;34.80;;;;;;5078453;28;20269;-45
2022/03/08 03:52:33;;;;;;;14.00;11.87;;;0.50;34.70;;;;;;5076444;28;20513;-45
2022/03/08 03:54:59;;;;;;;13.40;11.57;;;0.50;34.70;;;;;;5078394;28;20416;-45
2022/03/08 03:57:24;;;;;;;15.37;12.40;;;0.50;34.70;;;;;;5076464;28;20435;-45
2022/03/08 03:59:50;;;;;;;15.17;12.27;;;0.50;34.60;;;;;;5077563;28;20204;-45
2022/03/08 04:02:15;;;;;;;15.10;11.93;;;0.50;34.60;;;;;;5074895;28;20488;-45
2022/03/08 04:04:41;;;;;;;14.40;11.70;;;0.50;34.60;;;;;;5075290;28;20178;-45
2022/03/08 04:07:07;;;;;;;14.80;11.97;;;0.50;34.60;;;;;;5074042;28;20216;-45
2022/03/08 04:09:32;;;;;;;13.30;11.33;;;0.50;34.50;;;;;;5075162;28;20181;-45
2022/03/08 04:11:58;;;;;;;15.57;12.03;;;0.50;34.60;;;;;;5074048;28;20180;-45
2022/03/08 04:14:25;;;;;;;13.43;11.10;;;0.50;34.50;;;;;;5074535;28;20495;-45
2022/03/08 04:16:51;;;;;;;13.10;11.70;;;0.50;34.50;;;;;;5073549;28;20646;-45
2022/03/08 04:19:17;;;;;;;18.37;14.83;;;0.40;34.60;;;;;;5076744;28;20519;-45
2022/03/08 04:21:43;;;;;;;15.43;13.70;;;0.40;34.80;;;;;;5075884;28;20472;-45
2022/03/08 04:24:08;;;;;;;21.17;16.03;;;0.40;35.10;;;;;;5078032;28;20254;-45
2022/03/08 04:26:34;;;;;;;20.50;16.37;;;0.30;35.30;;;;;;5075968;28;20615;-45
2022/03/08 04:28:59;;;;;;;20.20;15.90;;;0.30;35.50;;;;;;5077416;28;20284;-45
2022/03/08 04:31:25;;;;;;;20.20;16.17;;;0.30;35.70;;;;;;5076648;28;20181;-45
2022/03/08 04:33:51;;;;;;;17.20;15.37;;;0.20;35.90;;;;;;5076787;28;20205;-45
2022/03/08 04:36:16;;;;;;;20.27;15.63;;;0.10;36.00;;;;;;5077251;28;20555;-45
2022/03/08 04:38:42;;;;;;;18.07;13.90;;;0.10;36.10;;;;;;5077654;28;20264;-45
2022/03/08 04:41:08;;;;;;;18.40;14.30;;;0.10;36.20;;;;;;5076271;28;20180;-45
2022/03/08 04:43:34;;;;;;;16.67;14.90;;;0.10;36.20;;;;;;5077515;28;20188;-45
2022/03/08 04:45:59;;;;;;;16.50;13.53;;;0.00;36.10;;;;;;5076711;28;20173;-44
2022/03/08 04:48:25;;;;;;;15.23;12.60;;;0.00;36.10;;;;;;5077718;28;20220;-45
2022/03/08 04:50:51;;;;;;;15.53;13.60;;;0.00;36.10;;;;;;5077511;28;20170;-45
2022/03/08 04:53:16;;;;;;;17.70;13.80;;;0.00;36.00;;;;;;5076020;28;20282;-45
2022/03/08 04:55:42;;;;;;;15.70;13.20;;;0.00;36.10;;;;;;5076271;28;20673;-45
2022/03/08 04:58:08;;;;;;;16.10;13.27;;;0.00;36.10;;;;;;5074696;28;20427;-45
2022/03/08 05:00:33;;;;;;;17.60;12.60;;;0.00;36.10;;;;;;5076528;28;20275;-45
2022/03/08 05:02:59;;;;;;;14.27;12.50;;;0.00;36.00;;;;;;5075656;28;20267;-46
2022/03/08 05:05:25;;;;;;;17.57;11.00;;;0.00;36.00;;;;;;5081342;28;20178;-47
2022/03/08 05:07:50;;;;;;;15.50;11.70;;;-0.10;35.90;;;;;;5079584;28;20213;-46
2022/03/08 05:10:16;;;;;;;13.53;11.33;;;0.00;35.90;;;;;;5080537;28;20440;-47
2022/03/08 05:12:42;;;;;;;14.53;12.97;;;0.00;35.90;;;;;;5078528;28;20212;-47
2022/03/08 05:15:08;;;;;;;16.30;13.33;;;0.00;35.90;;;;;;5078317;28;20192;-47
2022/03/08 05:17:34;;;;;;;17.00;13.53;;;0.00;36.00;;;;;;5076657;28;20427;-46
2022/03/08 05:20:00;;;;;;;18.90;15.77;;;0.00;36.20;;;;;;5078113;28;20424;-46
2022/03/08 05:22:25;;;;;;;18.20;15.10;;;0.00;36.40;;;;;;5077002;28;20173;-46
2022/03/08 05:24:52;;;;;;;21.43;17.03;;;-0.10;36.50;;;;;;5077380;28;20216;-47
2022/03/08 05:27:18;;;;;;;20.67;17.10;;;0.00;36.80;;;;;;5076250;28;20721;-47
2022/03/08 05:29:43;;;;;;;19.57;16.43;;;-0.10;36.90;;;;;;5079418;28;20424;-46
2022/03/08 05:32:09;;;;;;;21.30;16.70;;;-0.20;37.20;;;;;;5076776;28;20711;-47
2022/03/08 05:34:35;;;;;;;21.27;17.97;;;-0.20;37.40;;;;;;5079066;28;20246;-47
2022/03/08 05:37:00;;;;;;;20.30;16.50;;;-0.20;37.60;;;;;;5077559;28;20617;-47
2022/03/08 05:39:26;;;;;;;20.30;16.70;;;-0.30;37.60;;;;;;5061656;28;20185;-47
2022/03/08 05:41:52;;;;;;;22.10;16.13;;;-0.30;37.70;;;;;;5077815;28;20572;-47
2022/03/08 05:44:18;;;;;;;19.03;16.30;;;-0.30;37.70;;;;;;5079481;28;20527;-47
2022/03/08 05:46:43;;;;;;;20.00;16.53;;;-0.30;37.70;;;;;;5078001;28;20233;-47
2022/03/08 05:49:09;;;;;;;20.83;15.73;;;-0.30;37.70;;;;;;5079606;28;20572;-47
2022/03/08 05:51:35;;;;;;;19.60;16.73;;;-0.40;37.70;;;;;;5089663;28;20180;-48
2022/03/08 05:54:01;;;;;;;20.27;16.53;;;-0.40;37.80;;;;;;5101184;28;20176;-47
2022/03/08 05:56:27;;;;;;;23.80;16.97;;;-0.40;37.80;;;;;;5098950;28;20433;-47
2022/03/08 05:58:53;;;;;;;20.20;15.93;;;-0.40;37.80;;;;;;5098997;28;20419;-47
2022/03/08 06:01:19;;;;;;;19.27;15.40;;;-0.40;37.70;;;;;;5090406;28;20185;-47
2022/03/08 06:03:44;;;;;;;17.63;14.37;;;-0.40;37.80;;;;;;5088724;28;20563;-47
2022/03/08 06:06:11;;;;;;;20.70;15.30;;;-0.40;37.80;;;;;;5097781;28;20463;-47
2022/03/08 06:08:37;;;;;;;19.73;16.03;;;-0.40;37.90;;;;;;5099519;28;20173;-47
2022/03/08 06:11:03;;;;;;;23.80;15.80;;;-0.40;38.00;;;;;;5097486;28;20489;-47
2022/03/08 06:13:29;;;;;;;20.93;16.87;;;-0.50;37.90;;;;;;5097138;28;20579;-47
2022/03/08 06:15:55;;;;;;;22.43;16.63;;;-0.50;38.00;;;;;;5094994;28;20270;-48
2022/03/08 06:18:21;;;;;;;21.80;16.90;;;-0.40;38.20;;;;;;5095999;28;20514;-48
2022/03/08 06:20:47;;;;;;;23.33;17.43;;;-0.40;38.20;;;;;;5095931;28;20529;-46
2022/03/08 06:23:12;;;;;;;25.57;17.10;;;-0.40;38.30;;;;;;5093409;28;20195;-47
2022/03/08 06:25:39;;;;;;;21.20;16.87;;;-0.30;38.40;;;;;;5094803;28;20264;-47
2022/03/08 06:28:05;;;;;;;21.53;17.70;;;-0.20;38.50;;;;;;5093572;28;20215;-47
2022/03/08 06:30:31;;;;;;;22.50;17.13;;;-0.10;38.50;;;;;;5094511;28;20415;-47
2022/03/08 06:32:57;;;;;;;19.90;16.50;;;0.00;38.40;;;;;;5094634;28;20422;-46
2022/03/08 06:35:23;;;;;;;19.00;16.90;;;0.10;38.40;;;;;;5095620;28;20204;-47
2022/03/08 06:37:48;;;;;;;23.87;16.73;;;0.20;38.50;;;;;;5094979;28;20470;-47
2022/03/08 06:40:14;;;;;;;21.27;17.60;;;0.30;38.50;;;;;;5098047;28;20418;-47
2022/03/08 06:42:40;;;;;;;24.23;18.70;;;0.50;38.50;;;;;;5095473;28;20180;-47
2022/03/08 06:45:07;;;;;;;18.73;15.83;;;0.60;38.50;;;;;;5097345;28;20180;-47
2022/03/08 06:47:32;;;;;;;18.60;15.83;;;0.80;38.40;;;;;;5095350;28;20208;-47
2022/03/08 06:49:58;;;;;;;16.97;13.90;;;1.00;38.40;;;;;;5096464;28;20417;-47
2022/03/08 06:52:25;;;;;;;17.10;13.60;;;1.20;38.10;;;;;;5095663;28;20495;-47
2022/03/08 06:54:51;;;;;;;14.50;12.13;;;1.40;37.90;;;;;;5092632;28;20189;-47
2022/03/08 06:57:16;;;;;;;11.90;10.37;;;1.60;37.50;;;;;;5091207;28;20708;-47
2022/03/08 06:59:42;;;;;;;11.47;10.27;;;1.80;37.20;;;;;;5092757;28;20173;-47
2022/03/08 07:02:09;;;;;;;11.10;10.00;;;2.00;36.90;;;;;;5091681;28;20449;-47
2022/03/08 07:04:34;;;;;;;10.97;9.50;;;2.20;36.50;;;;;;5094492;28;20468;-47
2022/03/08 07:07:00;;;;;;;11.03;9.90;;;2.50;36.20;;;;;;5093203;28;20463;-47
2022/03/08 07:09:26;;;;;;;10.23;9.23;;;2.80;36.30;;;;;;5095474;28;20517;-47
2022/03/08 07:11:52;;;;;;;11.57;10.13;;;3.10;35.50;;;;;;5094771;28;20423;-47
2022/03/08 07:14:18;;;;;;;11.17;8.93;;;3.30;35.20;;;;;;5097369;28;20168;-47
2022/03/08 07:16:45;;;;;;;12.23;10.27;;;3.60;34.80;;;;;;5097555;28;20435;-47
2022/03/08 07:19:11;;;;;;;9.70;8.70;;;3.90;34.50;;;;;;5097680;28;20556;-47
2022/03/08 07:21:37;;;;;;;11.37;9.40;;;4.20;34.20;;;;;;5095366;28;20864;-47
2022/03/08 07:24:03;;;;;;;11.40;10.33;;;4.50;33.80;;;;;;5095149;28;20407;-47
2022/03/08 07:26:28;;;;;;;10.50;9.40;;;4.70;33.30;;;;;;5094629;28;20251;-47
2022/03/08 07:28:54;;;;;;;9.93;8.83;;;5.00;33.00;;;;;;5094668;28;20415;-47
2022/03/08 07:31:19;;;;;;;11.07;9.50;;;5.30;32.70;;;;;;5093557;28;20173;-47
2022/03/08 07:33:45;;;;;;;11.03;9.07;;;5.60;32.50;;;;;;5095349;28;20267;-47
2022/03/08 07:36:11;;;;;;;12.70;10.40;;;5.80;32.20;;;;;;5093189;28;20537;-47
2022/03/08 07:38:36;;;;;;;11.73;10.23;;;6.10;31.90;;;;;;5096287;28;20179;-47
2022/03/08 07:41:04;;;;;;;10.13;9.13;;;6.30;31.50;;;;;;5096677;28;20169;-47
2022/03/08 07:43:30;;;;;;;10.40;9.43;;;6.60;31.30;;;;;;5093551;28;20173;-47
2022/03/08 07:45:56;;;;;;;12.43;8.93;;;6.90;31.10;;;;;;5091522;28;20959;-47
2022/03/08 07:48:21;;;;;;;13.33;10.00;;;7.10;30.90;;;;;;5091717;28;20239;-47
2022/03/08 07:50:47;;;;;;;11.53;10.33;;;7.40;30.60;;;;;;5092634;28;20177;-47
2022/03/08 07:53:13;;;;;;;10.47;9.57;;;7.60;30.40;;;;;;5090843;28;20241;-47
2022/03/08 07:55:38;;;;;;;11.13;10.03;;;7.80;30.20;;;;;;5092803;28;20172;-47
2022/03/08 07:58:04;;;;;;;12.73;10.10;;;8.10;30.10;;;;;;5094911;28;20177;-47
2022/03/08 08:00:31;;;;;;;10.37;9.37;;;8.30;30.00;;;;;;5095623;28;20268;-47
2022/03/08 08:02:57;;;;;;;11.30;10.20;;;8.50;29.70;;;;;;5093167;28;20844;-47
2022/03/08 08:05:23;;;;;;;10.63;9.70;;;8.70;29.60;;;;;;5095104;28;20457;-47
2022/03/08 08:07:49;;;;;;;11.20;10.20;;;8.90;29.60;;;;;;5094037;28;20498;-46
2022/03/08 08:10:14;;;;;;;11.10;10.10;;;9.20;29.50;;;;;;5095401;28;20422;-47
2022/03/08 08:12:40;;;;;;;11.00;9.93;;;9.40;29.30;;;;;;5093628;28;20174;-47
2022/03/08 08:15:06;;;;;;;11.47;10.47;;;9.70;29.20;;;;;;5095976;28;20248;-47
2022/03/08 08:17:33;;;;;;;11.17;10.13;;;10.00;28.40;;;;;;5093528;28;20181;-47
2022/03/08 08:19:59;;;;;;;11.27;10.27;;;10.30;28.30;;;;;;5094014;28;20427;-47
2022/03/08 08:22:24;;;;;;;11.00;10.03;;;10.50;28.10;;;;;;5094657;28;20495;-47
2022/03/08 08:24:50;;;;;;;11.53;10.53;;;10.70;27.90;;;;;;5093691;28;20441;-47
2022/03/08 08:27:16;;;;;;;12.10;10.77;;;11.00;27.80;;;;;;5092694;28;20315;-46
2022/03/08 08:29:41;;;;;;;10.97;9.60;;;11.30;27.70;;;;;;5094092;28;20327;-47
2022/03/08 08:32:07;;;;;;;10.90;9.80;;;11.50;27.50;;;;;;5093353;28;20638;-47
2022/03/08 08:34:33;;;;;;;9.73;8.93;;;11.80;27.30;;;;;;5090639;28;20442;-47
2022/03/08 08:36:59;;;;;;;10.77;9.77;;;12.20;27.30;;;;;;5087820;28;20570;-47
2022/03/08 08:39:24;;;;;;;11.07;10.07;;;12.60;27.10;;;;;;5090039;28;20256;-47
2022/03/08 08:41:50;;;;;;;11.30;10.30;;;12.90;27.00;;;;;;5091167;28;20181;-47
2022/03/08 08:44:16;;;;;;;10.43;9.50;;;13.20;26.60;;;;;;5091408;28;20535;-47
2022/03/08 08:46:42;;;;;;;11.67;10.47;;;13.60;26.90;;;;;;5091041;28;20486;-47
2022/03/08 08:49:08;;;;;;;10.30;9.40;;;13.80;26.20;;;;;;5092900;28;20675;-47
2022/03/08 08:51:34;;;;;;;10.27;9.40;;;14.00;26.00;;;;;;5093805;28;20518;-47
2022/03/08 08:54:00;;;;;;;10.83;9.83;;;14.30;25.90;;;;;;5094923;28;20227;-47
2022/03/08 08:56:27;;;;;;;11.07;10.07;;;14.60;25.70;;;;;;5093137;28;20450;-47
2022/03/08 08:58:52;;;;;;;10.20;9.30;;;14.70;25.70;;;;;;5092941;28;20830;-47
2022/03/08 09:01:18;;;;;;;10.37;9.50;;;14.80;25.10;;;;;;5094056;28;20430;-56
2022/03/08 09:03:44;;;;;;;11.60;10.60;;;15.00;25.00;;;;;;5096038;28;20205;-46
2022/03/08 09:06:10;;;;;;;9.97;8.97;;;15.30;24.70;;;;;;5094969;28;20164;-47
2022/03/08 09:08:35;;;;;;;11.13;9.90;;;15.30;24.60;;;;;;5096476;28;20523;-47
2022/03/08 09:11:01;;;;;;;11.07;10.00;;;15.30;24.40;;;;;;5093747;28;20459;-47
2022/03/08 09:13:27;;;;;;;10.83;9.83;;;15.50;24.30;;;;;;5094456;28;20181;-48
2022/03/08 09:15:52;;;;;;;9.20;8.40;;;15.70;24.20;;;;;;5094011;28;20174;-47
2022/03/08 09:18:18;;;;;;;9.60;8.60;;;15.80;24.20;;;;;;5092563;28;20451;-46
2022/03/08 09:20:44;;;;;;;8.97;8.07;;;16.20;24.00;;;;;;5095113;28;20225;-47
2022/03/08 09:23:10;;;;;;;9.27;8.50;;;16.40;23.70;;;;;;5092019;28;20321;-47
2022/03/08 09:25:36;;;;;;;9.13;8.27;;;16.70;23.70;;;;;;5094375;28;20832;-48
2022/03/08 09:28:05;;;;;;;9.30;8.40;;;17.10;23.90;;;;;;5093316;28;20287;-47
2022/03/08 09:30:31;;;;;;;9.07;8.37;;;17.60;23.90;;;;;;5094721;28;20403;-47
2022/03/08 09:32:58;;;;;;;8.70;7.83;;;17.90;23.40;;;;;;5094118;28;20480;-47
2022/03/08 09:35:25;;;;;;;8.33;7.53;;;18.40;23.50;;;;;;5095744;28;20505;-48
2022/03/08 09:37:51;;;;;;;8.80;8.00;;;18.90;23.30;;;;;;5095338;28;20436;-48
2022/03/08 09:40:16;;;;;;;9.20;8.40;;;19.20;22.90;;;;;;5095314;28;20700;-47
2022/03/08 09:42:42;;;;;;;9.43;8.53;;;19.50;22.30;;;;;;5094479;28;20538;-47
2022/03/08 09:45:08;;;;;;;9.53;8.83;;;19.50;21.90;;;;;;5095693;28;20165;-47
2022/03/08 09:47:34;;;;;;;7.80;7.10;;;19.60;21.70;;;;;;5092963;28;20606;-47
2022/03/08 09:50:00;;;;;;;8.07;7.37;;;19.70;21.60;;;;;;5094566;28;20432;-47
2022/03/08 09:52:26;;;;;;;7.50;6.90;;;19.70;21.70;;;;;;5097167;28;20492;-47
2022/03/08 09:54:52;;;;;;;8.70;7.90;;;19.80;21.60;;;;;;5098408;28;20412;-47
2022/03/08 09:57:19;;;;;;;7.93;7.20;;;19.90;21.40;;;;;;5097148;28;20222;-47
2022/03/08 09:59:45;;;;;;;7.00;6.40;;;19.90;21.40;;;;;;5099551;28;20219;-47
2022/03/08 10:02:14;;;;;;;8.63;7.93;;;20.10;21.50;;;;;;5098736;28;20455;-47
2022/03/08 10:04:40;;;;;;;7.27;6.67;;;20.40;21.50;;;;;;5099635;28;20217;-48
2022/03/08 10:07:11;;;;;;;7.37;6.77;;;20.80;21.60;;;;;;5097082;28;20581;-47
2022/03/08 10:09:37;;;;;;;7.90;7.10;;;21.30;21.40;;;;;;5097110;28;20412;-47
2022/03/08 10:12:16;;;;;;;7.23;6.67;;;21.80;21.40;;;;;;5098125;28;20419;-47
2022/03/08 10:14:44;;;;;;;9.30;8.27;;;22.10;21.10;;;;;;5097221;28;20815;-48
2022/03/08 10:17:34;;;;;;;8.00;7.20;;;22.50;20.80;;;;;;5095229;28;20994;-47
2022/03/08 10:20:01;;;;;;;8.80;7.90;;;22.60;20.60;;;;;;5094787;28;20855;-48
2022/03/08 10:22:39;;;;;;;7.70;6.90;;;22.70;20.60;;;;;;5094725;28;20860;-47
2022/03/08 10:25:22;;;;;;;7.10;6.60;;;23.00;20.60;;;;;;5098078;28;20421;-47
2022/03/08 10:27:53;;;;;;;7.83;7.07;;;23.40;20.70;;;;;;5096061;28;20927;-47
2022/03/08 10:30:20;;;;;;;7.70;7.00;;;23.90;20.60;;;;;;5097717;28;20407;-47
2022/03/08 10:32:47;;;;;;;7.57;6.93;;;24.20;20.50;;;;;;5095720;28;20429;-47
2022/03/08 10:35:25;;;;;;;7.60;6.90;;;24.60;20.50;;;;;;5097572;28;20407;-46
2022/03/08 10:37:51;;;;;;;8.23;7.50;;;25.10;20.30;;;;;;5094819;28;20458;-46
2022/03/08 10:40:29;;;;;;;7.40;6.67;;;25.40;20.10;;;;;;5095781;28;20824;-46
2022/03/08 10:43:03;;;;;;;7.63;6.80;;;25.80;19.90;;;;;;5097133;28;20422;-41
2022/03/08 10:45:30;;;;;;;7.50;6.90;;;26.10;20.50;;;;;;5097432;28;20413;-40
2022/03/08 10:47:56;;;;;;;7.33;6.63;;;26.40;20.50;;;;;;5095904;28;20472;-41
2022/03/08 10:50:32;;;;;;;7.67;5.97;;;26.80;21.20;;;;;;5096504;28;20414;-41
2022/03/08 10:52:59;;;;;;;12.50;5.90;;;27.20;23.80;;;;;;5094113;28;20894;-39
2022/03/08 10:55:27;;;;;;;6.60;5.90;;;27.70;24.00;;;;;;5095855;28;20447;-40
2022/03/08 10:57:56;;;;;;;7.50;5.63;;;27.80;23.50;;;;;;5093829;28;20478;-39
2022/03/08 11:00:33;;;;;;;6.70;6.00;;;27.90;22.70;;;;;;5077698;28;20488;-40
2022/03/08 11:03:02;;;;;;;6.47;5.90;;;28.00;22.60;;;;;;5094096;28;20430;-41
2022/03/08 11:05:44;;;;;;;7.00;6.40;;;28.40;22.60;;;;;;5097192;28;20926;-40
2022/03/08 11:08:11;;;;;;;9.10;6.73;;;28.70;22.80;;;;;;5096749;28;20475;-43
2022/03/08 11:10:38;;;;;;;6.23;5.63;;;29.30;22.60;;;;;;5097251;28;20415;-42
2022/03/08 11:13:05;;;;;;;7.10;5.70;;;29.50;21.90;;;;;;5095970;28;20448;-40
2022/03/08 11:15:33;;;;;;;6.23;5.73;;;29.70;21.90;;;;;;5093102;28;20399;-41
2022/03/08 11:18:01;;;;;;;6.00;5.50;;;30.00;21.90;;;;;;5089898;28;20767;-45
2022/03/08 11:20:28;;;;;;;6.30;5.70;;;30.20;21.10;;;;;;5093535;28;20405;-40
2022/03/08 11:22:56;;;;;;;6.40;5.90;;;29.90;21.00;;;;;;5092635;28;20418;-39
2022/03/08 11:25:30;;;;;;;5.30;4.90;;;30.00;21.30;;;;;;5092567;28;20634;-41
2022/03/08 11:27:56;;;;;;;4.93;4.53;;;30.60;22.70;;;;;;5092365;28;20518;-41
2022/03/08 11:30:28;;;;;;;10.77;6.50;;;31.20;22.00;;;;;;5093781;28;20419;-41
2022/03/08 11:33:06;;;;;;;6.80;6.20;;;31.30;20.80;;;;;;5072803;28;20733;-41
2022/03/08 11:35:35;;;;;;;6.93;6.43;;;31.50;20.00;;;;;;5074766;28;20472;-41
2022/03/08 11:38:01;;;;;;;6.60;6.00;;;31.90;20.10;;;;;;5074183;28;20472;-40
2022/03/08 11:40:26;;;;;;;6.17;5.57;;;32.00;20.40;;;;;;5073864;28;20397;-43
2022/03/08 11:42:55;;;;;;;6.03;5.50;;;32.00;21.30;;;;;;5074205;28;20184;-41
2022/03/08 11:45:26;;;;;;;5.90;5.30;;;32.10;22.00;;;;;;5058132;28;20471;-42
2022/03/08 11:47:56;;;;;;;6.30;5.70;;;32.40;22.00;;;;;;5072983;28;20936;-41
2022/03/08 11:50:31;;;;;;;5.70;5.13;;;32.50;20.70;;;;;;5074240;28;20385;-42
2022/03/08 11:53:09;;;;;;;5.83;5.37;;;32.70;20.50;;;;;;5071413;28;20490;-43
2022/03/08 11:55:43;;;;;;;6.70;6.20;;;32.80;21.00;;;;;;5075170;28;20419;-40
2022/03/08 11:58:16;;;;;;;7.20;6.70;;;32.80;20.20;;;;;;5077250;28;20506;-43
2022/03/08 12:00:53;;;;;;;7.23;6.63;;;32.90;19.80;;;;;;5075425;28;20405;-42
2022/03/08 12:03:22;;;;;;;7.70;7.20;;;32.90;18.80;;;;;;5090803;28;20410;-41
2022/03/08 12:06:09;;;;;;;5.97;5.47;;;32.90;19.10;;;;;;5094905;28;20497;-42
2022/03/08 12:08:38;;;;;;;6.27;5.77;;;32.90;20.60;;;;;;5096156;28;20430;-43
2022/03/08 12:11:07;;;;;;;5.60;5.20;;;33.10;20.60;;;;;;5093636;28;20383;-44
2022/03/08 12:13:38;;;;;;;6.47;5.97;;;33.40;20.80;;;;;;5090142;28;20406;-42
2022/03/08 12:16:07;;;;;;;6.77;6.27;;;33.70;20.00;;;;;;5091964;28;20431;-42
2022/03/08 12:18:47;;;;;;;6.93;6.43;;;33.80;19.80;;;;;;5094075;28;20444;-43
2022/03/08 12:21:19;;;;;;;6.20;5.70;;;33.80;19.70;;;;;;5094838;28;20472;-41
2022/03/08 12:23:50;;;;;;;6.40;6.00;;;34.00;20.40;;;;;;5094688;28;20699;-43
2022/03/08 12:26:26;;;;;;;6.53;5.93;;;34.00;19.20;;;;;;5094096;28;20437;-41
2022/03/08 12:29:14;;;;;;;6.53;6.03;;;34.00;20.70;;;;;;5095620;28;20445;-43
2022/03/08 12:31:58;;;;;;;7.67;7.00;;;34.30;20.20;;;;;;5092816;28;20416;-43
2022/03/08 12:34:42;;;;;;;9.00;8.30;;;34.40;18.70;;;;;;5094378;28;20381;-42
2022/03/08 12:37:14;;;;;;;8.33;7.73;;;34.10;17.50;;;;;;5093833;28;20554;-43